createdAt,value
2023-05-17T00:02:03.384Z,12.25
2023-05-17T00:04:30.818Z,12.63
2023-05-17T00:06:58.149Z,8.77
2023-05-17T00:09:25.552Z,12.70
2023-05-17T00:11:52.933Z,14.07
2023-05-17T00:17:00.911Z,9.70
2023-05-17T00:19:30.708Z,13.20
2023-05-17T00:21:57.921Z,8.50
2023-05-17T00:24:25.134Z,8.02
2023-05-17T00:26:52.591Z,9.57
2023-05-17T00:29:19.674Z,10.57
2023-05-17T00:31:46.914Z,10.77
2023-05-17T00:34:14.026Z,8.68
2023-05-17T00:36:41.155Z,8.20
2023-05-17T00:39:08.321Z,12.15
2023-05-17T00:41:36.023Z,14.60
2023-05-17T00:44:03.259Z,11.20
2023-05-17T00:46:30.558Z,10.43
2023-05-17T00:48:57.676Z,14.57
2023-05-17T00:51:24.916Z,10.38
2023-05-17T00:53:52.574Z,9.43
2023-05-17T00:56:19.807Z,12.15
2023-05-17T00:58:50.312Z,7.15
2023-05-17T01:01:17.590Z,8.07
2023-05-17T01:03:45.164Z,11.52
2023-05-17T01:06:12.444Z,10.07
2023-05-17T01:08:39.552Z,8.73
2023-05-17T01:11:12.648Z,8.75
2023-05-17T01:13:58.373Z,10.18
2023-05-17T01:16:25.589Z,7.50
2023-05-17T01:18:59.055Z,5.72
2023-05-17T01:21:45.464Z,8.73
2023-05-17T01:24:30.944Z,8.65
2023-05-17T01:27:00.038Z,13.18
2023-05-17T01:29:27.701Z,7.63
2023-05-17T01:31:55.855Z,8.15
2023-05-17T01:34:27.092Z,12.27
2023-05-17T01:36:54.402Z,14.00
2023-05-17T01:39:21.884Z,10.38
2023-05-17T01:41:58.391Z,12.55
2023-05-17T01:44:32.447Z,11.25
2023-05-17T01:47:07.401Z,12.38
2023-05-17T01:49:37.757Z,8.48
2023-05-17T01:52:04.907Z,10.48
2023-05-17T01:54:32.940Z,11.88
2023-05-17T01:57:00.017Z,14.60
2023-05-17T01:59:27.499Z,13.23
2023-05-17T02:02:03.937Z,11.55
2023-05-17T02:04:31.487Z,7.13
2023-05-17T02:06:58.759Z,15.85
2023-05-17T02:09:26.006Z,9.55
2023-05-17T02:11:53.121Z,9.75
2023-05-17T02:14:20.309Z,8.98
2023-05-17T02:16:47.592Z,8.95
2023-05-17T02:19:15.203Z,16.63
2023-05-17T02:21:42.420Z,13.75
2023-05-17T02:24:09.588Z,8.98
2023-05-17T02:26:36.875Z,18.60
2023-05-17T02:29:03.981Z,10.70
2023-05-17T02:31:31.478Z,13.45
2023-05-17T02:36:35.050Z,13.35
2023-05-17T02:39:02.178Z,7.97
2023-05-17T02:41:29.411Z,13.07
2023-05-17T02:43:56.539Z,16.77
2023-05-17T02:48:55.754Z,13.55
2023-05-17T02:51:22.822Z,11.30
2023-05-17T02:53:49.947Z,13.55
2023-05-17T02:56:17.112Z,13.23
2023-05-17T02:58:44.240Z,12.60
2023-05-17T03:01:11.405Z,18.15
2023-05-17T03:03:38.886Z,16.15
2023-05-17T03:06:06.302Z,11.70
2023-05-17T03:08:33.520Z,15.63
2023-05-17T03:11:00.813Z,13.07
2023-05-17T03:13:28.081Z,15.52
2023-05-17T03:15:55.329Z,15.90
2023-05-17T03:18:22.699Z,14.13
2023-05-17T03:20:52.793Z,12.93
2023-05-17T03:23:22.168Z,15.55
2023-05-17T03:25:50.050Z,15.63
2023-05-17T03:28:17.271Z,12.45
2023-05-17T03:30:44.359Z,14.57
2023-05-17T03:33:11.676Z,15.30
2023-05-17T03:35:38.958Z,15.30
2023-05-17T03:38:06.106Z,14.63
2023-05-17T03:40:33.266Z,12.77
2023-05-17T03:43:00.923Z,22.73
2023-05-17T03:45:28.363Z,16.13
2023-05-17T03:47:56.177Z,11.63
2023-05-17T03:50:23.370Z,16.33
2023-05-17T03:52:50.624Z,15.48
2023-05-17T03:55:18.089Z,15.48
2023-05-17T03:57:45.262Z,19.17
2023-05-17T04:00:21.181Z,22.58
2023-05-17T04:02:48.944Z,15.57
2023-05-17T04:05:16.579Z,19.63
2023-05-17T04:07:44.068Z,21.55
2023-05-17T04:10:11.423Z,24.42
2023-05-17T04:12:39.176Z,18.63
2023-05-17T04:15:06.812Z,21.15
2023-05-17T04:17:34.052Z,17.02
2023-05-17T04:20:01.241Z,27.45
2023-05-17T04:22:28.495Z,19.67
2023-05-17T04:24:55.672Z,19.30
2023-05-17T04:27:23.325Z,20.48
2023-05-17T04:29:50.665Z,32.15
2023-05-17T04:32:18.819Z,22.48
2023-05-17T04:37:39.960Z,23.88
2023-05-17T04:40:08.152Z,18.27
2023-05-17T04:42:35.695Z,19.52
2023-05-17T04:45:05.672Z,23.13
2023-05-17T04:50:18.847Z,24.83
2023-05-17T04:52:47.843Z,19.52
2023-05-17T04:55:15.147Z,16.35
2023-05-17T04:57:42.550Z,19.73
2023-05-17T05:00:10.268Z,22.13
2023-05-17T05:02:39.252Z,21.13
2023-05-17T05:05:07.028Z,21.92
2023-05-17T05:07:34.324Z,28.85
2023-05-17T05:10:02.215Z,18.60
2023-05-17T05:12:29.562Z,17.58
2023-05-17T05:14:57.727Z,25.80
2023-05-17T05:17:26.617Z,25.55
2023-05-17T05:19:54.438Z,23.40
2023-05-17T05:22:22.090Z,20.25
2023-05-17T05:24:49.412Z,22.65
2023-05-17T05:27:16.657Z,28.80
2023-05-17T05:29:44.049Z,31.42
2023-05-17T05:32:11.224Z,24.50
2023-05-17T05:34:45.894Z,32.13
2023-05-17T05:37:13.525Z,26.73
2023-05-17T05:39:40.765Z,27.45
2023-05-17T05:42:08.147Z,29.70
2023-05-17T05:44:35.403Z,28.58
2023-05-17T05:47:02.860Z,30.65
2023-05-17T05:49:30.081Z,30.48
2023-05-17T05:51:57.982Z,31.20
2023-05-17T05:54:25.481Z,30.40
2023-05-17T05:56:52.678Z,30.00
2023-05-17T05:59:19.826Z,27.33
2023-05-17T06:01:49.131Z,26.92
2023-05-17T06:04:16.465Z,33.58
2023-05-17T06:06:45.341Z,36.78
2023-05-17T06:09:12.830Z,33.65
2023-05-17T06:11:40.368Z,37.45
2023-05-17T06:14:10.302Z,27.52
2023-05-17T06:16:37.693Z,40.28
2023-05-17T06:19:05.494Z,33.47
2023-05-17T06:21:32.733Z,40.17
2023-05-17T06:23:59.929Z,33.00
2023-05-17T06:26:27.595Z,48.65
2023-05-17T06:28:54.704Z,44.10
2023-05-17T06:31:21.942Z,40.05
2023-05-17T06:33:49.685Z,38.95
2023-05-17T06:36:17.380Z,46.17
2023-05-17T06:38:44.541Z,50.40
2023-05-17T06:41:11.789Z,48.88
2023-05-17T06:43:39.231Z,55.92
2023-05-17T06:46:06.484Z,44.88
2023-05-17T06:51:09.206Z,42.05
2023-05-17T06:54:01.537Z,50.92
2023-05-17T07:02:59.705Z,51.17
2023-05-17T07:05:29.900Z,73.78
2023-05-17T07:08:03.472Z,64.32
2023-05-17T07:10:31.483Z,61.10
2023-05-17T07:13:20.344Z,63.80
2023-05-17T07:15:54.824Z,52.80
2023-05-17T07:18:22.326Z,65.60
2023-05-17T07:20:55.769Z,67.85
2023-05-17T07:31:33.038Z,54.97
2023-05-17T07:34:00.748Z,53.45
2023-05-17T07:36:30.787Z,52.70
2023-05-17T07:39:08.255Z,45.25
2023-05-17T07:41:36.090Z,43.28
2023-05-17T07:44:05.840Z,39.50
2023-05-17T07:46:34.133Z,38.47
2023-05-17T07:49:01.708Z,32.40
2023-05-17T07:51:29.940Z,33.20
2023-05-17T07:53:58.360Z,31.55
2023-05-17T07:56:25.719Z,32.40
2023-05-17T07:58:54.100Z,29.38
2023-05-17T08:01:21.930Z,32.47
2023-05-17T08:03:54.717Z,38.65
2023-05-17T08:06:23.036Z,26.48
2023-05-17T08:08:51.285Z,22.70
2023-05-17T08:11:19.546Z,24.35
2023-05-17T08:13:50.389Z,30.02
2023-05-17T08:18:49.584Z,23.02
2023-05-17T08:21:17.654Z,22.70
2023-05-17T08:23:49.201Z,23.58
2023-05-17T08:28:58.911Z,34.60
2023-05-17T08:31:26.241Z,16.50
2023-05-17T08:33:53.596Z,17.33
2023-05-17T08:36:20.971Z,20.83
2023-05-17T08:38:48.318Z,19.55
2023-05-17T08:41:15.965Z,19.23
2023-05-17T08:43:44.608Z,16.33
2023-05-17T08:46:12.893Z,12.05
2023-05-17T08:48:42.110Z,15.85
2023-05-17T08:51:13.314Z,9.48
2023-05-17T08:53:42.535Z,13.57
2023-05-17T08:56:13.003Z,16.58
2023-05-17T08:58:55.745Z,15.95
2023-05-17T09:01:26.502Z,17.25
2023-05-17T09:03:54.614Z,14.68
2023-05-17T09:06:22.827Z,14.45
2023-05-17T09:08:54.635Z,10.98
2023-05-17T09:11:28.368Z,13.55
2023-05-17T09:13:59.117Z,16.33
2023-05-17T09:16:28.522Z,10.23
2023-05-17T09:18:56.997Z,12.82
2023-05-17T09:21:24.990Z,15.23
2023-05-17T09:24:04.786Z,5.63
2023-05-17T09:26:40.411Z,11.20
2023-05-17T09:29:15.591Z,8.60
2023-05-17T09:31:44.741Z,9.90
2023-05-17T09:34:12.191Z,13.63
2023-05-17T09:36:42.648Z,10.07
2023-05-17T09:39:14.354Z,6.05
2023-05-17T09:41:45.132Z,8.38
2023-05-17T09:44:12.917Z,14.52
2023-05-17T09:46:43.652Z,9.80
2023-05-17T09:49:11.024Z,10.52
2023-05-17T09:51:46.549Z,9.35
2023-05-17T09:54:14.187Z,11.45
2023-05-17T09:56:42.120Z,9.57
2023-05-17T09:59:14.581Z,11.38
2023-05-17T10:01:43.102Z,7.25
2023-05-17T10:04:11.650Z,9.15
2023-05-17T10:09:12.260Z,13.13
2023-05-17T10:11:40.939Z,7.45
2023-05-17T10:14:12.585Z,8.63
2023-05-17T10:16:39.996Z,11.32
2023-05-17T10:19:07.816Z,10.18
2023-05-17T10:21:35.362Z,10.07
2023-05-17T10:24:03.023Z,8.18
2023-05-17T10:26:33.034Z,11.82
2023-05-17T10:29:01.748Z,11.63
2023-05-17T10:31:33.572Z,13.20
2023-05-17T10:34:05.926Z,8.43
2023-05-17T10:36:34.086Z,6.13
2023-05-17T10:44:34.158Z,8.07
2023-05-17T10:47:01.777Z,13.85
2023-05-17T10:49:33.526Z,7.10
2023-05-17T10:52:11.697Z,9.57
2023-05-17T10:54:41.704Z,12.05
2023-05-17T10:57:09.793Z,12.60
2023-05-17T10:59:37.035Z,12.80
2023-05-17T11:02:05.628Z,9.80
2023-05-17T11:04:37.430Z,14.73
2023-05-17T11:07:17.450Z,10.48
2023-05-17T11:09:46.840Z,6.95
2023-05-17T11:14:45.625Z,11.05
2023-05-17T11:17:17.779Z,11.85
2023-05-17T11:19:54.571Z,13.50
2023-05-17T11:22:28.490Z,10.65
2023-05-17T11:24:58.077Z,12.15
2023-05-17T11:27:30.003Z,5.60
2023-05-17T11:29:58.815Z,6.85
2023-05-17T11:32:29.966Z,13.35
2023-05-17T11:34:58.015Z,8.45
2023-05-17T11:37:30.065Z,14.18
2023-05-17T11:40:22.368Z,7.95
2023-05-17T11:42:51.001Z,7.70
2023-05-17T11:45:18.789Z,9.75
2023-05-17T11:47:49.186Z,12.32
2023-05-17T11:50:25.667Z,9.48
2023-05-17T11:53:01.329Z,9.88
2023-05-17T11:55:29.313Z,9.15
2023-05-17T11:57:57.963Z,9.93
2023-05-17T12:00:29.094Z,15.57
2023-05-17T12:02:57.005Z,11.38
2023-05-17T12:08:07.567Z,6.13
2023-05-17T12:10:36.427Z,6.18
2023-05-17T12:13:04.191Z,10.30
2023-05-17T12:15:32.158Z,10.80
2023-05-17T12:17:59.617Z,7.50
2023-05-17T12:20:27.876Z,11.52
2023-05-17T12:22:56.183Z,14.15
2023-05-17T12:25:25.622Z,9.05
2023-05-17T12:28:03.045Z,13.75
2023-05-17T12:30:30.928Z,11.20
2023-05-17T12:32:58.680Z,7.82
2023-05-17T12:35:26.313Z,12.00
2023-05-17T12:37:53.700Z,12.48
2023-05-17T12:40:23.049Z,11.30
2023-05-17T12:45:16.511Z,10.15
2023-05-17T12:47:46.930Z,10.98
2023-05-17T12:50:14.613Z,9.65
2023-05-17T12:52:42.811Z,9.90
2023-05-17T12:55:13.841Z,9.48
2023-05-17T12:57:49.278Z,7.50
2023-05-17T13:00:17.047Z,23.88
2023-05-17T13:02:47.362Z,9.10
2023-05-17T13:05:17.106Z,7.28
2023-05-17T13:07:44.584Z,10.00
2023-05-17T13:10:27.620Z,8.70
2023-05-17T13:13:00.157Z,8.45
2023-05-17T13:15:34.983Z,6.85
2023-05-17T13:18:16.534Z,8.23
2023-05-17T13:20:48.080Z,11.68
2023-05-17T13:23:21.174Z,14.52
2023-05-17T13:25:49.645Z,8.30
2023-05-17T13:28:17.882Z,15.68
2023-05-17T13:30:50.283Z,11.07
2023-05-17T13:33:17.790Z,7.00
2023-05-17T13:35:46.002Z,18.10
2023-05-17T13:38:14.466Z,11.35
2023-05-17T13:40:44.413Z,10.18
2023-05-17T13:48:28.731Z,14.93
2023-05-17T13:50:57.160Z,8.20
2023-05-17T13:53:24.628Z,9.73
2023-05-17T13:55:52.109Z,7.55
2023-05-17T13:58:24.077Z,8.48
2023-05-17T14:00:58.048Z,10.35
2023-05-17T14:03:26.349Z,9.27
2023-05-17T14:05:54.724Z,8.93
2023-05-17T14:08:23.051Z,11.45
2023-05-17T14:10:51.136Z,11.27
2023-05-17T14:13:18.935Z,9.15
2023-05-17T14:15:46.588Z,13.32
2023-05-17T14:18:14.425Z,6.53
2023-05-17T14:20:42.979Z,12.38
2023-05-17T14:23:10.623Z,11.07
2023-05-17T14:25:37.743Z,7.20
2023-05-17T14:28:05.787Z,7.22
2023-05-17T14:30:38.452Z,7.95
2023-05-17T14:33:05.751Z,6.68
2023-05-17T14:35:33.306Z,10.02
2023-05-17T14:38:00.805Z,5.53
2023-05-17T14:40:28.392Z,13.90
2023-05-17T14:42:56.778Z,10.43
2023-05-17T14:45:26.807Z,8.82
2023-05-17T14:48:00.549Z,7.95
2023-05-17T14:50:28.080Z,5.97
2023-05-17T14:52:55.332Z,9.95
2023-05-17T14:55:22.963Z,9.82
2023-05-17T14:57:52.965Z,9.90
2023-05-17T15:03:11.687Z,9.50
2023-05-17T15:05:40.350Z,5.57
2023-05-17T15:08:08.418Z,8.00
2023-05-17T15:10:36.171Z,11.48
2023-05-17T15:13:04.647Z,10.90
2023-05-17T15:15:33.715Z,8.38
2023-05-17T15:18:01.477Z,8.33
2023-05-17T15:20:31.431Z,5.72
2023-05-17T15:25:28.631Z,4.85
2023-05-17T15:27:56.155Z,16.13
2023-05-17T15:30:27.911Z,5.65
2023-05-17T15:32:57.433Z,6.10
2023-05-17T15:35:29.544Z,8.45
2023-05-17T15:37:59.301Z,9.90
2023-05-17T15:40:27.036Z,9.43
2023-05-17T15:42:54.490Z,7.65
2023-05-17T15:45:28.803Z,9.48
2023-05-17T15:47:57.265Z,5.93
2023-05-17T15:50:25.989Z,11.18
2023-05-17T15:52:53.220Z,8.30
2023-05-17T15:55:26.926Z,9.38
2023-05-17T15:57:54.181Z,12.23
2023-05-17T16:00:21.842Z,9.85
2023-05-17T16:02:49.309Z,7.97
2023-05-17T16:05:17.267Z,10.05
2023-05-17T16:07:44.534Z,10.30
2023-05-17T16:10:11.934Z,10.00
2023-05-17T16:12:39.368Z,10.15
2023-05-17T16:15:06.591Z,10.35
2023-05-17T16:17:34.294Z,7.63
2023-05-17T16:20:01.762Z,10.35
2023-05-17T16:22:30.328Z,13.52
2023-05-17T16:24:57.407Z,9.90
2023-05-17T16:27:25.391Z,5.30
2023-05-17T16:29:53.672Z,13.32
2023-05-17T16:32:23.425Z,11.25
2023-05-17T16:34:50.949Z,7.68
2023-05-17T16:37:18.297Z,10.02
2023-05-17T16:39:46.198Z,10.23
2023-05-17T16:42:13.826Z,8.02
2023-05-17T16:44:41.891Z,13.15
2023-05-17T16:47:11.913Z,6.15
2023-05-17T16:52:08.969Z,9.70
2023-05-17T16:54:36.745Z,16.77
2023-05-17T16:59:40.889Z,12.75
2023-05-17T17:02:08.272Z,9.45
2023-05-17T17:04:35.890Z,6.65
2023-05-17T17:12:29.067Z,6.90
2023-05-17T17:14:55.906Z,9.38
2023-05-17T17:17:22.690Z,19.27
2023-05-17T17:19:49.913Z,9.68
2023-05-17T17:22:16.803Z,8.32
2023-05-17T17:24:44.452Z,9.65
2023-05-17T17:27:11.650Z,6.32
2023-05-17T17:29:38.585Z,14.65
2023-05-17T17:32:05.988Z,5.45
2023-05-17T17:34:33.738Z,9.40
2023-05-17T17:37:00.728Z,6.32
2023-05-17T17:39:30.047Z,7.65
2023-05-17T17:41:56.788Z,10.43
2023-05-17T17:44:23.674Z,7.70
2023-05-17T17:46:50.601Z,8.45
2023-05-17T17:49:17.435Z,11.95
2023-05-17T17:51:44.164Z,10.02
2023-05-17T17:54:10.999Z,7.93
2023-05-17T17:56:38.170Z,12.82
2023-05-17T17:59:04.913Z,11.15
2023-05-17T18:01:33.763Z,9.20
2023-05-17T18:04:06.833Z,7.80
2023-05-17T18:06:33.833Z,7.97
2023-05-17T18:09:00.671Z,5.53
2023-05-17T18:11:28.051Z,7.15
2023-05-17T18:13:58.377Z,8.40
2023-05-17T18:18:51.991Z,9.27
2023-05-17T18:21:18.860Z,6.75
2023-05-17T18:23:46.201Z,7.22
2023-05-17T18:26:14.196Z,11.25
2023-05-17T18:28:43.042Z,7.10
2023-05-17T18:31:11.471Z,12.63
2023-05-17T18:33:38.503Z,5.82
2023-05-17T18:36:05.833Z,10.75
2023-05-17T18:38:33.721Z,7.15
2023-05-17T18:41:00.568Z,8.07
2023-05-17T18:43:31.313Z,8.40
2023-05-17T18:45:58.158Z,10.85
2023-05-17T18:48:25.587Z,15.40
2023-05-17T18:50:53.622Z,13.05
2023-05-17T18:53:20.986Z,9.95
2023-05-17T18:55:48.080Z,7.95
2023-05-17T18:58:15.389Z,12.45
2023-05-17T19:00:42.826Z,8.55
2023-05-17T19:03:10.058Z,18.20
2023-05-17T19:05:37.186Z,10.73
2023-05-17T19:08:04.321Z,9.40
2023-05-17T19:10:31.972Z,9.45
2023-05-17T19:12:59.410Z,10.90
2023-05-17T19:15:26.604Z,13.93
2023-05-17T19:17:53.755Z,8.50
2023-05-17T19:20:21.388Z,10.75
2023-05-17T19:22:48.481Z,7.70
2023-05-17T19:25:17.893Z,8.93
2023-05-17T19:27:46.144Z,9.73
2023-05-17T19:30:13.673Z,18.13
2023-05-17T19:32:41.426Z,8.95
2023-05-17T19:35:09.104Z,14.40
2023-05-17T19:37:36.540Z,12.23
2023-05-17T19:40:07.612Z,13.27
2023-05-17T19:42:35.042Z,14.52
2023-05-17T19:45:02.228Z,9.55
2023-05-17T19:47:29.367Z,12.25
2023-05-17T19:49:57.637Z,11.50
2023-05-17T19:52:24.778Z,9.80
2023-05-17T19:54:51.913Z,11.43
2023-05-17T19:57:19.084Z,12.65
2023-05-17T19:59:46.348Z,13.43
2023-05-17T20:02:13.537Z,17.83
2023-05-17T20:04:40.770Z,10.43
2023-05-17T20:07:08.175Z,10.82
2023-05-17T20:09:36.267Z,15.90
2023-05-17T20:12:03.509Z,12.82
2023-05-17T20:14:30.847Z,16.42
2023-05-17T20:16:58.031Z,11.73
2023-05-17T20:19:25.285Z,14.15
2023-05-17T20:21:52.891Z,26.13
2023-05-17T20:24:22.444Z,9.73
2023-05-17T20:26:49.566Z,9.80
2023-05-17T20:29:17.177Z,11.45
2023-05-17T20:31:44.735Z,11.90
2023-05-17T20:34:12.084Z,11.38
2023-05-17T20:36:39.633Z,13.82
2023-05-17T20:39:07.519Z,20.50
2023-05-17T20:41:34.921Z,14.85
2023-05-17T20:44:02.362Z,12.73
2023-05-17T20:46:32.819Z,16.08
2023-05-17T20:54:09.235Z,12.00
2023-05-17T20:56:36.961Z,15.15
2023-05-17T20:59:04.318Z,13.82
2023-05-17T21:01:32.075Z,10.70
2023-05-17T21:03:59.706Z,14.50
2023-05-17T21:06:30.225Z,14.68
2023-05-17T21:09:02.144Z,16.83
2023-05-17T21:11:29.858Z,16.80
2023-05-17T21:14:00.817Z,11.00
2023-05-17T21:16:28.353Z,11.00
2023-05-17T21:18:55.749Z,12.23
2023-05-17T21:21:22.992Z,13.45
2023-05-17T21:23:50.748Z,13.75
2023-05-17T21:26:18.003Z,15.45
2023-05-17T21:28:45.456Z,11.48
2023-05-17T21:31:14.788Z,19.67
2023-05-17T21:33:50.495Z,18.33
2023-05-17T21:39:08.974Z,12.82
2023-05-17T21:44:22.345Z,17.65
2023-05-17T21:49:31.744Z,13.13
2023-05-17T21:51:58.987Z,10.82
2023-05-17T21:54:26.428Z,14.23
2023-05-17T21:59:45.871Z,11.13
2023-05-17T22:04:56.273Z,21.15
2023-05-17T22:07:25.227Z,13.05
2023-05-17T22:18:06.478Z,16.65
2023-05-17T22:20:42.060Z,16.27
2023-05-17T22:23:11.993Z,19.10
2023-05-17T22:25:42.335Z,18.30
2023-05-17T22:33:29.134Z,15.20
2023-05-17T22:35:58.656Z,12.05
2023-05-17T22:38:29.509Z,15.85
2023-05-17T22:41:00.466Z,18.15
2023-05-17T22:46:09.475Z,15.52
2023-05-17T22:48:44.931Z,13.50
2023-05-17T22:51:13.341Z,15.82
2023-05-17T22:53:41.390Z,14.48
2023-05-17T22:56:08.960Z,13.88
2023-05-17T22:58:38.771Z,19.85
2023-05-17T23:01:10.284Z,16.73
2023-05-17T23:03:46.370Z,16.00
2023-05-17T23:06:18.336Z,17.67
2023-05-17T23:08:46.226Z,16.52
2023-05-17T23:14:00.986Z,14.43
2023-05-17T23:16:29.070Z,17.92
2023-05-17T23:21:41.155Z,12.40
2023-05-17T23:24:08.960Z,10.40
2023-05-17T23:26:37.193Z,12.02
2023-05-17T23:29:09.089Z,10.15
2023-05-17T23:31:37.983Z,11.32
2023-05-17T23:34:07.545Z,11.07
2023-05-17T23:36:42.201Z,20.58
2023-05-17T23:39:18.367Z,12.35
2023-05-17T23:41:46.299Z,12.15
2023-05-17T23:44:14.383Z,11.65
2023-05-17T23:46:52.491Z,17.10
2023-05-17T23:52:14.232Z,17.58
2023-05-17T23:54:45.732Z,13.10
2023-05-17T23:59:57.860Z,11.95
